Time;durP1;ratioP1;P1;durP2;ratioP2;P2;SDS_P1;SDS_P2;PMS_P1;PMS_P2;Temp;Humidity;BMP_temperature;BMP_pressure;BME280_temperature;BME280_humidity;BME280_pressure;Samples;Min_cycle;Max_cycle;Signal;HPM_P1;HPM_P2
2024/01/27 00:02:05;;;;;;;13.00;2.10;;;;;;;2.62;100.00;103219.09;5046485;28;20132;-76
2024/01/27 00:04:51;;;;;;;11.65;1.98;;;;;;;2.62;100.00;103219.09;5046981;28;20734;-76
2024/01/27 00:07:36;;;;;;;5.97;1.63;;;;;;;2.64;100.00;103217.41;5008401;28;20041;-76
2024/01/27 00:10:22;;;;;;;8.52;1.63;;;;;;;2.65;100.00;103219.16;5045429;28;20232;-76
2024/01/27 00:13:08;;;;;;;9.45;1.98;;;;;;;2.64;100.00;103220.03;5049652;28;20044;-76
2024/01/27 00:15:54;;;;;;;7.65;2.03;;;;;;;2.63;100.00;103216.53;5039356;28;20041;-76
2024/01/27 00:18:40;;;;;;;8.93;2.20;;;;;;;2.63;100.00;103221.78;5033000;28;20716;-76
2024/01/27 00:21:25;;;;;;;7.78;1.98;;;;;;;2.66;100.00;103226.19;5045561;28;20037;-76
2024/01/27 00:24:13;;;;;;;13.88;1.80;;;;;;;2.67;100.00;103222.72;5022419;28;20603;-76
2024/01/27 00:27:00;;;;;;;6.32;1.52;;;;;;;2.69;100.00;103234.09;5028328;28;20226;-76
2024/01/27 00:29:46;;;;;;;7.88;1.80;;;;;;;2.72;100.00;103236.78;5029462;28;20033;-76
2024/01/27 00:32:33;;;;;;;10.63;1.55;;;;;;;2.73;100.00;103238.59;5030769;28;20064;-76
2024/01/27 00:35:19;;;;;;;9.13;1.67;;;;;;;2.69;100.00;103241.97;5045262;28;20101;-77
2024/01/27 00:38:05;;;;;;;13.18;2.03;;;;;;;2.68;100.00;103240.19;5045928;28;20123;-76
2024/01/27 00:40:50;;;;;;;11.00;2.20;;;;;;;2.64;100.00;103240.94;5044992;28;22025;-76
2024/01/27 00:43:36;;;;;;;13.98;2.17;;;;;;;2.62;100.00;103238.28;5044824;28;20060;-76
2024/01/27 00:46:22;;;;;;;14.45;2.47;;;;;;;2.62;100.00;103234.81;5029319;28;20044;-76
2024/01/27 00:49:08;;;;;;;8.52;1.80;;;;;;;2.57;100.00;103243.41;5043999;28;20040;-76
2024/01/27 00:51:54;;;;;;;6.13;1.67;;;;;;;2.53;100.00;103245.91;5043757;28;22086;-76
2024/01/27 00:54:40;;;;;;;8.25;1.95;;;;;;;2.46;100.00;103242.25;5031120;28;20547;-76
2024/01/27 00:57:25;;;;;;;9.23;2.20;;;;;;;2.40;100.00;103256.00;5043624;28;20095;-76
2024/01/27 01:00:12;;;;;;;11.57;1.85;;;;;;;2.37;100.00;103260.28;5045589;28;20045;-76
2024/01/27 01:02:57;;;;;;;11.57;1.98;;;;;;;2.31;100.00;103251.41;5025358;28;20040;-77
2024/01/27 01:05:43;;;;;;;8.52;1.80;;;;;;;2.27;100.00;103252.19;5047031;28;20040;-76
2024/01/27 01:08:29;;;;;;;10.02;2.10;;;;;;;2.25;100.00;103251.28;5049416;28;20044;-76
2024/01/27 01:11:15;;;;;;;15.07;2.05;;;;;;;2.29;100.00;103252.25;5033810;28;20293;-76
2024/01/27 01:14:01;;;;;;;13.18;2.00;;;;;;;2.28;100.00;103240.88;5049942;28;20442;-76
2024/01/27 01:16:46;;;;;;;10.50;2.10;;;;;;;2.29;100.00;103253.09;5031838;28;20058;-76
2024/01/27 01:19:32;;;;;;;8.70;1.63;;;;;;;2.30;100.00;103259.25;5047242;28;20268;-77
2024/01/27 01:22:18;;;;;;;7.55;1.50;;;;;;;2.29;100.00;103257.47;5035033;28;20043;-76
2024/01/27 01:25:04;;;;;;;12.52;2.70;;;;;;;2.27;100.00;103253.91;5032134;28;20040;-76
2024/01/27 01:27:50;;;;;;;7.68;1.65;;;;;;;2.24;100.00;103254.69;5047872;28;20049;-76
2024/01/27 01:30:36;;;;;;;9.32;2.35;;;;;;;2.21;100.00;103259.84;5047289;28;20339;-74
2024/01/27 01:33:21;;;;;;;13.60;1.90;;;;;;;2.17;100.00;103264.13;5045904;28;20674;-75
2024/01/27 01:36:07;;;;;;;8.63;1.80;;;;;;;2.13;100.00;103257.00;5045762;28;20036;-74
2024/01/27 01:38:53;;;;;;;11.32;1.63;;;;;;;2.11;100.00;103268.25;5034154;28;20044;-74
2024/01/27 01:41:39;;;;;;;9.95;1.58;;;;;;;2.08;100.00;103263.84;5045646;28;20159;-74
2024/01/27 01:44:30;;;;;;;12.63;1.80;;;;;;;2.06;100.00;103260.28;5010564;28;20080;-74
2024/01/27 01:47:15;;;;;;;8.95;1.85;;;;;;;2.03;100.00;103266.31;5048100;28;20043;-74
2024/01/27 01:50:01;;;;;;;10.05;1.80;;;;;;;2.04;100.00;103267.22;5036666;28;20624;-74
2024/01/27 01:52:48;;;;;;;14.30;2.20;;;;;;;2.02;100.00;103259.31;5049115;28;20060;-74
2024/01/27 01:55:34;;;;;;;9.32;1.75;;;;;;;2.02;100.00;103259.31;5033854;28;20039;-74
2024/01/27 01:58:20;;;;;;;8.50;1.27;;;;;;;1.99;100.00;103259.25;5032767;28;20400;-74
2024/01/27 02:01:06;;;;;;;10.05;1.77;;;;;;;1.99;100.00;103261.84;5048662;28;20060;-75
2024/01/27 02:03:53;;;;;;;8.30;1.63;;;;;;;1.98;100.00;103260.09;5030901;28;20032;-74
2024/01/27 02:06:39;;;;;;;6.97;1.80;;;;;;;1.96;100.00;103259.13;5045491;28;20055;-74
2024/01/27 02:09:25;;;;;;;5.13;1.33;;;;;;;2.00;100.00;103268.84;5028014;28;20125;-75
2024/01/27 02:12:11;;;;;;;10.23;1.80;;;;;;;2.01;100.00;103262.78;5039449;28;20030;-74
2024/01/27 02:14:56;;;;;;;12.35;2.03;;;;;;;2.04;100.00;103267.22;5031949;28;20109;-75
2024/01/27 02:17:42;;;;;;;9.95;1.80;;;;;;;2.03;100.00;103260.22;5029969;28;20056;-74
2024/01/27 02:20:28;;;;;;;16.10;1.77;;;;;;;2.02;100.00;103264.53;5043911;28;20040;-76
2024/01/27 02:23:14;;;;;;;13.45;1.83;;;;;;;2.01;100.00;103269.72;5047223;28;20506;-75
2024/01/27 02:26:00;;;;;;;5.13;1.33;;;;;;;2.00;100.00;103276.69;5041196;28;20743;-75
2024/01/27 02:28:45;;;;;;;10.10;2.13;;;;;;;1.96;100.00;103272.19;5043317;28;22245;-75
2024/01/27 02:31:31;;;;;;;8.88;1.70;;;;;;;1.96;100.00;103280.03;5030925;28;20055;-75
2024/01/27 02:34:17;;;;;;;8.48;1.73;;;;;;;1.93;100.00;103284.28;5048178;28;20126;-76
2024/01/27 02:37:03;;;;;;;8.02;1.55;;;;;;;1.91;100.00;103281.66;5045793;28;20067;-75
2024/01/27 02:39:48;;;;;;;7.65;1.80;;;;;;;1.92;100.00;103275.59;5030294;28;20110;-75
2024/01/27 02:42:34;;;;;;;6.68;1.25;;;;;;;1.89;100.00;103265.91;5043749;28;20048;-75
2024/01/27 02:45:20;;;;;;;11.68;1.80;;;;;;;1.89;100.00;103259.78;5049069;28;20121;-75
2024/01/27 02:48:06;;;;;;;15.00;2.28;;;;;;;1.87;100.00;103249.28;5053910;28;20043;-75
2024/01/27 02:50:52;;;;;;;7.35;1.63;;;;;;;1.87;100.00;103251.03;5040272;28;20041;-75
2024/01/27 02:53:37;;;;;;;8.57;1.85;;;;;;;1.86;100.00;103252.75;5044009;28;20044;-75
2024/01/27 02:56:23;;;;;;;9.30;1.40;;;;;;;1.85;100.00;103256.22;5028963;28;20139;-75
2024/01/27 02:59:09;;;;;;;7.30;1.80;;;;;;;1.84;100.00;103254.44;5041379;28;20108;-75
2024/01/27 03:01:54;;;;;;;9.20;1.35;;;;;;;1.85;100.00;103265.78;5019586;28;20044;-75
2024/01/27 03:04:40;;;;;;;13.27;2.35;;;;;;;1.85;100.00;103265.78;5045630;28;20033;-75
2024/01/27 03:07:26;;;;;;;6.97;1.65;;;;;;;1.83;100.00;103270.06;5035194;28;20033;-76
2024/01/27 03:10:12;;;;;;;7.65;1.70;;;;;;;1.80;100.00;103275.22;5044833;28;20040;-75
2024/01/27 03:12:58;;;;;;;9.40;1.52;;;;;;;1.76;100.00;103277.72;5042564;28;20041;-75
2024/01/27 03:15:43;;;;;;;9.68;1.60;;;;;;;1.73;100.00;103275.03;5045718;28;21926;-75
2024/01/27 03:18:29;;;;;;;10.35;2.05;;;;;;;1.71;100.00;103279.31;5042168;28;20618;-76
2024/01/27 03:21:15;;;;;;;8.75;1.70;;;;;;;1.69;100.00;103273.13;5043087;28;20044;-75
2024/01/27 03:24:01;;;;;;;12.27;1.85;;;;;;;1.67;100.00;103264.38;5043772;28;20139;-75
2024/01/27 03:26:46;;;;;;;13.55;2.10;;;;;;;1.66;100.00;103275.66;5031807;28;20049;-74
2024/01/27 03:29:32;;;;;;;5.15;1.38;;;;;;;1.65;100.00;103278.22;5043102;28;20037;-75
2024/01/27 03:32:18;;;;;;;9.02;1.50;;;;;;;1.64;100.00;103279.97;5045523;28;20043;-75
2024/01/27 03:35:04;;;;;;;8.15;1.67;;;;;;;1.63;100.00;103281.69;5043200;28;20453;-75
2024/01/27 03:37:51;;;;;;;9.27;1.80;;;;;;;1.63;100.00;103291.22;5029676;28;20036;-75
2024/01/27 03:40:42;;;;;;;6.85;1.70;;;;;;;1.63;100.00;103291.22;5044945;28;20060;-75
2024/01/27 03:43:28;;;;;;;3.03;1.20;;;;;;;1.60;100.00;103289.44;5043244;28;21233;-75
2024/01/27 03:46:14;;;;;;;11.70;1.80;;;;;;;1.60;100.00;103285.94;5043849;28;20052;-75
2024/01/27 03:49:00;;;;;;;7.88;1.98;;;;;;;1.61;100.00;103290.31;5040700;28;20068;-76
2024/01/27 03:51:45;;;;;;;8.60;1.55;;;;;;;1.61;100.00;103287.69;5029538;28;20438;-75
2024/01/27 03:54:31;;;;;;;9.90;1.65;;;;;;;1.61;100.00;103285.06;5033118;28;20045;-75
2024/01/27 03:57:17;;;;;;;10.85;2.20;;;;;;;1.61;100.00;103292.91;5043448;28;20109;-76
2024/01/27 04:00:04;;;;;;;5.80;1.83;;;;;;;1.63;100.00;103301.69;5031023;28;20110;-75
2024/01/27 04:02:49;;;;;;;6.07;1.50;;;;;;;1.65;100.00;103305.25;5044578;28;20032;-75
2024/01/27 04:05:36;;;;;;;8.93;1.50;;;;;;;1.67;100.00;103303.56;5042363;28;20438;-75
2024/01/27 04:08:21;;;;;;;9.95;1.88;;;;;;;1.68;100.00;103313.16;5034346;28;20036;-75
2024/01/27 04:11:08;;;;;;;8.30;1.63;;;;;;;1.70;100.00;103310.59;5022555;28;20134;-75
2024/01/27 04:13:53;;;;;;;10.45;1.83;;;;;;;1.70;100.00;103303.63;5043404;28;20109;-76
2024/01/27 04:16:39;;;;;;;5.50;1.70;;;;;;;1.72;100.00;103304.59;5028996;28;20032;-75
2024/01/27 04:19:25;;;;;;;10.05;1.85;;;;;;;1.76;100.00;103292.50;5014981;28;20046;-75
2024/01/27 04:22:11;;;;;;;10.60;1.80;;;;;;;1.78;100.00;103290.81;5042428;28;20051;-75
2024/01/27 04:24:56;;;;;;;8.50;1.60;;;;;;;1.78;100.00;103290.81;5029966;28;20068;-75
2024/01/27 04:27:42;;;;;;;7.30;1.70;;;;;;;1.76;100.00;103296.00;5015748;28;20045;-75
2024/01/27 04:30:31;;;;;;;6.22;1.35;;;;;;;1.77;100.00;103294.28;5027902;28;20144;-76
2024/01/27 04:33:16;;;;;;;8.02;1.65;;;;;;;1.76;100.00;103285.53;5043153;28;20040;-76
2024/01/27 04:36:02;;;;;;;9.15;1.85;;;;;;;1.76;100.00;103287.28;5028649;28;20040;-75
2024/01/27 04:38:48;;;;;;;8.05;1.58;;;;;;;1.75;100.00;103283.78;5031361;28;20051;-76
2024/01/27 04:41:34;;;;;;;5.95;1.65;;;;;;;1.74;100.00;103276.78;5045019;28;20408;-76
2024/01/27 04:44:20;;;;;;;8.98;1.73;;;;;;;1.75;100.00;103267.25;5042546;28;20657;-75
2024/01/27 04:47:06;;;;;;;8.90;1.55;;;;;;;1.76;100.00;103272.47;5044237;28;20043;-75
2024/01/27 04:49:51;;;;;;;9.45;1.80;;;;;;;1.76;100.00;103271.63;5040855;28;20129;-76
2024/01/27 04:52:37;;;;;;;5.30;1.38;;;;;;;1.73;100.00;103272.41;5030008;28;20044;-76
2024/01/27 04:55:23;;;;;;;7.07;1.85;;;;;;;1.70;100.00;103276.66;5026729;28;20470;-75
2024/01/27 04:58:09;;;;;;;10.77;1.48;;;;;;;1.68;100.00;103273.97;5024217;28;20943;-75
2024/01/27 05:00:54;;;;;;;7.18;1.40;;;;;;;1.69;100.00;103277.50;5028138;28;20032;-76
2024/01/27 05:03:40;;;;;;;10.77;1.80;;;;;;;1.69;100.00;103275.75;5029385;28;20122;-76
2024/01/27 05:06:26;;;;;;;9.45;1.50;;;;;;;1.67;100.00;103261.78;5015502;28;20695;-76
2024/01/27 05:09:12;;;;;;;10.05;1.88;;;;;;;1.67;100.00;103273.94;5043946;28;20029;-76
2024/01/27 05:12:00;;;;;;;8.68;1.58;;;;;;;1.63;100.00;103271.22;5044272;28;20033;-76
2024/01/27 05:14:45;;;;;;;8.27;2.08;;;;;;;1.64;100.00;103272.13;5020111;28;20150;-76
2024/01/27 05:17:31;;;;;;;14.63;1.60;;;;;;;1.65;100.00;103284.34;5029555;28;20053;-76
2024/01/27 05:20:17;;;;;;;13.38;1.98;;;;;;;1.63;100.00;103278.16;5043685;28;20543;-76
2024/01/27 05:23:04;;;;;;;12.52;1.98;;;;;;;1.63;100.00;103278.16;5029173;28;20104;-75
2024/01/27 05:25:49;;;;;;;12.07;1.98;;;;;;;1.61;100.00;103280.75;5044302;28;20036;-76
2024/01/27 05:28:35;;;;;;;11.07;1.58;;;;;;;1.61;100.00;103269.41;5029054;28;20047;-75
2024/01/27 05:31:21;;;;;;;5.13;1.55;;;;;;;1.61;100.00;103278.16;5045327;28;20037;-76
2024/01/27 05:34:07;;;;;;;13.75;2.22;;;;;;;1.60;100.00;103278.09;5043700;28;20052;-75
2024/01/27 05:36:53;;;;;;;6.35;1.50;;;;;;;1.60;100.00;103265.94;5044811;28;20040;-76
2024/01/27 05:39:38;;;;;;;6.03;1.70;;;;;;;1.63;100.00;103271.22;5027311;28;20129;-76
2024/01/27 05:42:24;;;;;;;9.38;1.85;;;;;;;1.66;100.00;103264.31;5045661;28;20048;-76
2024/01/27 05:45:10;;;;;;;6.10;1.73;;;;;;;1.66;100.00;103267.84;5044249;28;20057;-75
2024/01/27 05:47:56;;;;;;;8.18;1.65;;;;;;;1.66;100.00;103278.28;5027140;28;20064;-75
2024/01/27 05:50:42;;;;;;;12.10;2.10;;;;;;;1.63;100.00;103271.22;5046529;28;20044;-76
2024/01/27 05:53:28;;;;;;;9.38;1.83;;;;;;;1.63;100.00;103280.78;5048133;28;20060;-76
2024/01/27 05:56:13;;;;;;;11.38;1.95;;;;;;;1.63;100.00;103276.47;5047242;28;20491;-76
2024/01/27 05:59:00;;;;;;;9.02;1.67;;;;;;;1.63;100.00;103286.00;5045245;28;20056;-76
2024/01/27 06:01:46;;;;;;;8.18;1.77;;;;;;;1.60;100.00;103283.31;5035068;28;20520;-76
2024/01/27 06:04:33;;;;;;;6.70;1.67;;;;;;;1.59;100.00;103274.56;5032266;28;20041;-76
2024/01/27 06:07:18;;;;;;;8.40;1.85;;;;;;;1.61;100.00;103279.84;5034280;28;20164;-75
2024/01/27 06:10:08;;;;;;;5.95;1.83;;;;;;;1.60;100.00;103288.53;5033751;28;20033;-76
2024/01/27 06:12:53;;;;;;;11.40;1.95;;;;;;;1.60;100.00;103276.38;5046494;28;20051;-76
2024/01/27 06:15:39;;;;;;;7.47;1.83;;;;;;;1.59;100.00;103282.41;5032620;28;20037;-76
2024/01/27 06:18:25;;;;;;;8.52;1.88;;;;;;;1.60;100.00;103278.09;5050071;28;20064;-76
2024/01/27 06:21:14;;;;;;;11.25;1.70;;;;;;;1.60;100.00;103276.38;5043075;28;20065;-76
2024/01/27 06:23:59;;;;;;;16.33;2.30;;;;;;;1.58;100.00;103283.25;5021177;28;20045;-76
2024/01/27 06:26:45;;;;;;;6.55;1.90;;;;;;;1.60;100.00;103286.81;5019547;28;20130;-76
2024/01/27 06:29:31;;;;;;;9.35;1.75;;;;;;;1.61;100.00;103287.69;5043741;28;20040;-76
2024/01/27 06:32:16;;;;;;;16.67;1.95;;;;;;;1.59;100.00;103287.63;5045899;28;20097;-76
2024/01/27 06:35:03;;;;;;;7.40;2.00;;;;;;;1.59;100.00;103294.59;5030724;28;20064;-76
2024/01/27 06:37:50;;;;;;;8.30;1.92;;;;;;;1.58;100.00;103298.06;5028791;28;20032;-77
2024/01/27 06:40:36;;;;;;;12.80;2.20;;;;;;;1.57;100.00;103296.28;5048395;28;20063;-76
2024/01/27 06:43:21;;;;;;;9.15;1.77;;;;;;;1.57;100.00;103293.69;5021082;28;20438;-77
2024/01/27 06:46:07;;;;;;;8.52;2.38;;;;;;;1.57;100.00;103286.72;5046029;28;22005;-76
2024/01/27 06:48:53;;;;;;;10.82;1.92;;;;;;;1.57;100.00;103283.22;5045501;28;20517;-76
2024/01/27 06:51:38;;;;;;;12.68;2.67;;;;;;;1.56;100.00;103291.88;5045644;28;20498;-76
2024/01/27 06:54:24;;;;;;;8.55;2.10;;;;;;;1.55;100.00;103298.84;5031329;28;20044;-76
2024/01/27 06:57:20;;;;;;;8.13;2.42;;;;;;;1.53;100.00;103294.41;5033062;28;20029;-76
2024/01/27 07:00:07;;;;;;;10.63;2.47;;;;;;;1.53;100.00;103294.41;5032888;28;20335;-75
2024/01/27 07:02:53;;;;;;;12.05;2.28;;;;;;;1.56;100.00;103289.25;5034467;28;20045;-76
2024/01/27 07:05:40;;;;;;;16.85;2.35;;;;;;;1.56;100.00;103289.25;5034006;28;22106;-76
2024/01/27 07:08:26;;;;;;;10.02;2.30;;;;;;;1.53;100.00;103292.66;5048183;28;20040;-76
2024/01/27 07:11:12;;;;;;;9.38;1.90;;;;;;;1.55;100.00;103297.94;5048409;28;20582;-76
2024/01/27 07:13:58;;;;;;;9.30;2.47;;;;;;;1.56;100.00;103284.03;5048913;28;20126;-75
2024/01/27 07:16:44;;;;;;;10.20;2.00;;;;;;;1.59;100.00;103300.69;5048847;28;20037;-75
2024/01/27 07:19:30;;;;;;;6.90;2.05;;;;;;;1.61;100.00;103304.25;5049350;28;20037;-75
2024/01/27 07:22:15;;;;;;;10.60;1.85;;;;;;;1.65;100.00;103299.13;5057561;28;20091;-76
2024/01/27 07:25:01;;;;;;;7.63;1.65;;;;;;;1.68;100.00;103302.72;5058301;28;20040;-76
2024/01/27 07:27:47;;;;;;;9.38;1.52;;;;;;;1.71;100.00;103301.94;5063410;28;20043;-75
2024/01/27 07:30:33;;;;;;;10.23;2.15;;;;;;;1.78;100.00;103300.41;5035647;28;20785;-74
2024/01/27 07:33:18;;;;;;;11.25;2.08;;;;;;;1.82;100.00;103313.59;5021398;28;20044;-77
2024/01/27 07:36:05;;;;;;;8.02;1.88;;;;;;;1.80;100.00;103314.41;5003220;28;22726;-76
2024/01/27 07:38:53;;;;;;;10.85;1.77;;;;;;;1.80;100.00;103319.63;5018928;28;21741;-77
2024/01/27 07:41:39;;;;;;;17.08;2.40;;;;;;;1.81;100.00;103324.91;5049438;28;20442;-76
2024/01/27 07:44:24;;;;;;;13.00;1.80;;;;;;;1.85;100.00;103315.44;5047112;28;20033;-76
2024/01/27 07:47:13;;;;;;;14.40;1.90;;;;;;;1.88;100.00;103313.78;5049122;28;20035;-76
2024/01/27 07:49:59;;;;;;;10.57;1.92;;;;;;;1.92;100.00;103320.00;5048587;28;20128;-77
2024/01/27 07:52:45;;;;;;;7.82;1.90;;;;;;;1.90;100.00;103321.66;5034899;28;20445;-76
2024/01/27 07:55:30;;;;;;;6.88;2.13;;;;;;;1.89;100.00;103332.94;5049588;28;20032;-74
2024/01/27 07:58:16;;;;;;;7.00;1.60;;;;;;;1.89;100.00;103325.13;5047932;28;20475;-76
2024/01/27 08:01:02;;;;;;;6.65;1.60;;;;;;;1.92;100.00;103325.22;5046101;28;20051;-76
2024/01/27 08:03:48;;;;;;;10.70;2.03;;;;;;;1.94;100.00;103331.38;5048267;28;20799;-76
2024/01/27 08:06:33;;;;;;;10.52;2.17;;;;;;;1.96;100.00;103337.53;5034094;28;20155;-74
2024/01/27 08:09:19;;;;;;;15.10;2.10;;;;;;;1.96;100.00;103341.88;5045851;28;20040;-75
2024/01/27 08:12:08;;;;;;;12.73;2.03;;;;;;;1.98;100.00;103341.09;5045416;28;20028;-74
2024/01/27 08:14:54;;;;;;;11.07;2.50;;;;;;;2.00;100.00;103336.78;5045275;28;20048;-74
2024/01/27 08:17:40;;;;;;;6.63;2.20;;;;;;;2.06;100.00;103345.66;5030981;28;20087;-73
2024/01/27 08:20:26;;;;;;;8.75;2.28;;;;;;;2.09;100.00;103350.97;5047164;28;20040;-74
2024/01/27 08:23:12;;;;;;;11.02;2.20;;;;;;;2.10;100.00;103348.41;5047701;28;20058;-75
2024/01/27 08:25:58;;;;;;;12.93;2.25;;;;;;;2.12;100.00;103351.09;5038052;28;20045;-75
2024/01/27 08:28:44;;;;;;;10.88;2.30;;;;;;;2.14;100.00;103365.94;5045012;28;20045;-76
2024/01/27 08:31:32;;;;;;;15.73;2.38;;;;;;;2.16;100.00;103363.38;5047400;28;20597;-76
2024/01/27 08:34:18;;;;;;;10.60;2.40;;;;;;;2.19;100.00;103360.88;5032661;28;20037;-75
2024/01/27 08:37:15;;;;;;;9.77;2.10;;;;;;;2.22;100.00;103345.28;5030435;28;20029;-75
2024/01/27 08:40:00;;;;;;;9.65;2.45;;;;;;;2.25;100.00;103355.84;5032495;28;20044;-74
2024/01/27 08:42:46;;;;;;;8.95;2.42;;;;;;;2.30;100.00;103353.34;5046282;28;20059;-76
2024/01/27 08:45:32;;;;;;;10.88;2.63;;;;;;;2.33;100.00;103358.66;5045589;28;20060;-76
2024/01/27 08:48:18;;;;;;;10.18;2.28;;;;;;;2.33;100.00;103357.78;5033451;28;20621;-76
2024/01/27 08:51:04;;;;;;;10.02;2.22;;;;;;;2.38;100.00;103364.91;5044490;28;20040;-76
2024/01/27 08:53:52;;;;;;;12.80;2.83;;;;;;;2.42;100.00;103368.50;5046225;28;20043;-76
2024/01/27 08:56:44;;;;;;;9.57;2.53;;;;;;;2.48;100.00;103373.91;5029361;28;20044;-77
2024/01/27 08:59:30;;;;;;;9.30;2.50;;;;;;;2.51;100.00;103384.47;5015709;28;20041;-76
2024/01/27 09:02:16;;;;;;;9.68;3.05;;;;;;;2.56;100.00;103375.03;5043365;28;20120;-76
2024/01/27 09:05:02;;;;;;;10.40;2.50;;;;;;;2.65;100.00;103369.19;5027924;28;20045;-76
2024/01/27 09:07:48;;;;;;;9.63;3.03;;;;;;;2.71;100.00;103373.69;5043713;28;20342;-75
2024/01/27 09:10:33;;;;;;;12.85;2.85;;;;;;;2.75;100.00;103372.94;5043973;28;20041;-76
2024/01/27 09:13:19;;;;;;;12.15;3.42;;;;;;;2.83;100.00;103374.03;5040676;28;20044;-76
2024/01/27 09:16:14;;;;;;;12.75;2.88;;;;;;;2.89;100.00;103375.91;5030225;28;20049;-75
2024/01/27 09:19:00;;;;;;;13.18;3.40;;;;;;;2.94;100.00;103379.56;5020626;28;20119;-74
2024/01/27 09:21:46;;;;;;;7.15;2.55;;;;;;;2.97;100.00;103379.66;5043240;28;20037;-73
2024/01/27 09:24:32;;;;;;;14.70;3.40;;;;;;;2.99;100.00;103388.44;5045627;28;20036;-74
2024/01/27 09:27:18;;;;;;;13.60;3.03;;;;;;;3.03;100.00;103394.63;5050691;28;20054;-75
2024/01/27 09:30:05;;;;;;;12.95;2.88;;;;;;;3.08;100.00;103390.41;5034030;28;21980;-74
2024/01/27 09:32:50;;;;;;;10.07;2.85;;;;;;;3.10;100.00;103386.09;5049235;28;20040;-75
2024/01/27 09:35:36;;;;;;;16.42;3.72;;;;;;;3.17;100.00;103383.66;5049631;28;20047;-74
2024/01/27 09:38:22;;;;;;;14.23;3.42;;;;;;;3.22;100.00;103389.91;5053824;28;20133;-73
2024/01/27 09:41:10;;;;;;;13.13;3.22;;;;;;;3.27;100.00;103383.03;5050915;28;20064;-74
2024/01/27 09:43:59;;;;;;;15.68;3.90;;;;;;;3.30;100.00;103379.59;5035322;28;20059;-75
2024/01/27 09:46:47;;;;;;;12.82;3.45;;;;;;;3.37;100.00;103382.44;5027191;28;20052;-75
2024/01/27 09:49:33;;;;;;;10.00;3.92;;;;;;;3.44;100.00;103382.59;5021615;28;20039;-75
2024/01/27 09:52:19;;;;;;;12.38;3.63;;;;;;;3.53;100.00;103377.56;5035815;28;20036;-74
2024/01/27 09:55:05;;;;;;;16.27;3.42;;;;;;;3.59;100.00;103384.72;5040046;28;20402;-74
2024/01/27 09:57:52;;;;;;;14.05;3.22;;;;;;;3.62;100.00;103388.28;5025835;28;20752;-74
2024/01/27 10:00:38;;;;;;;13.65;3.67;;;;;;;3.74;100.00;103390.31;5039951;28;20036;-74
2024/01/27 10:03:28;;;;;;;14.63;3.25;;;;;;;3.83;100.00;103394.91;5048028;28;20120;-74
2024/01/27 10:06:14;;;;;;;9.90;3.42;;;;;;;3.87;100.00;103394.09;5038078;28;20033;-73
2024/01/27 10:09:00;;;;;;;10.60;3.50;;;;;;;3.97;100.00;103400.44;5048030;28;20111;-74
2024/01/27 10:11:47;;;;;;;9.15;4.13;;;;;;;4.04;100.00;103402.34;5049735;28;20050;-74
2024/01/27 10:14:40;;;;;;;10.85;3.55;;;;;;;4.09;100.00;103399.88;5034289;28;20044;-75
2024/01/27 10:17:32;;;;;;;12.43;3.60;;;;;;;4.17;100.00;103403.53;5028512;28;20086;-75
2024/01/27 10:20:18;;;;;;;10.05;3.85;;;;;;;4.21;100.00;103400.13;5049133;28;20029;-74
2024/01/27 10:23:11;;;;;;;12.70;3.42;;;;;;;4.28;100.00;103408.13;5049586;28;20154;-73
2024/01/27 10:25:57;;;;;;;12.88;3.72;;;;;;;4.30;100.00;103414.31;5040960;28;20048;-74
2024/01/27 10:28:46;;;;;;;19.15;3.67;;;;;;;4.39;100.00;103411.88;5051076;28;20052;-74
2024/01/27 10:31:36;;;;;;;13.52;3.70;;;;;;;4.40;100.00;103413.66;5038849;28;20040;-75
2024/01/27 10:34:22;;;;;;;12.30;3.53;;;;;;;4.43;100.00;103413.72;5052802;28;20048;-75
2024/01/27 10:37:07;;;;;;;11.95;3.53;;;;;;;4.47;100.00;103426.03;5050442;28;20131;-75
2024/01/27 10:40:12;;;;;;;12.07;3.20;;;;;;;4.52;100.00;103425.28;5048731;28;20040;-74
2024/01/27 10:43:02;;;;;;;16.02;4.05;;;;;;;4.57;100.00;103426.25;5048391;28;20037;-74
2024/01/27 10:45:48;;;;;;;9.18;3.53;;;;;;;4.60;100.00;103416.72;5045726;28;20080;-74
2024/01/27 10:48:38;;;;;;;12.52;3.70;;;;;;;4.66;100.00;103423.81;5032820;28;20098;-74
2024/01/27 10:51:35;;;;;;;11.60;3.42;;;;;;;4.68;100.00;103422.09;5029676;28;20029;-73
2024/01/27 10:54:26;;;;;;;11.40;3.22;;;;;;;4.74;100.00;103416.13;5034233;28;20048;-74
2024/01/27 10:57:11;;;;;;;13.63;3.13;;;;;;;4.78;100.00;103430.19;5033168;28;20495;-73
2024/01/27 10:59:58;;;;;;;13.70;3.03;;;;;;;4.86;100.00;103431.22;5035044;28;20503;-74
2024/01/27 11:02:44;;;;;;;13.07;3.28;;;;;;;4.91;100.00;103432.19;5032966;28;22564;-74
2024/01/27 11:05:31;;;;;;;12.02;3.38;;;;;;;4.95;100.00;103427.91;5032646;28;20071;-74
2024/01/27 11:08:18;;;;;;;10.55;3.45;;;;;;;4.97;100.00;103426.19;5023406;28;20230;-74
2024/01/27 11:11:04;;;;;;;13.65;3.22;;;;;;;5.03;100.00;103428.91;5046757;28;20040;-77
2024/01/27 11:13:50;;;;;;;12.85;3.05;;;;;;;5.06;100.00;103428.97;5048520;28;20064;-76
2024/01/27 11:16:43;;;;;;;9.15;3.00;;;;;;;5.11;100.00;103422.06;5034149;28;20615;-76
2024/01/27 11:19:29;;;;;;;12.10;3.20;;;;;;;5.19;100.00;103426.56;5031944;28;20043;-77
2024/01/27 11:22:31;;;;;;;16.90;2.85;;;;;;;5.25;100.00;103427.59;5030036;28;20109;-78
2024/01/27 11:25:18;;;;;;;9.30;2.80;;;;;;;5.29;100.00;103426.78;5035169;28;20040;-77
2024/01/27 11:28:13;;;;;;;17.77;3.45;;;;;;;5.32;100.00;103427.72;5035530;28;20029;-77
2024/01/27 11:31:06;;;;;;;7.43;2.67;;;;;;;5.34;100.00;103415.47;5015106;28;20045;-78
2024/01/27 11:33:53;;;;;;;15.93;4.40;;;;;;;5.37;100.00;103429.56;5041873;28;20029;-78
2024/01/27 11:36:41;;;;;;;23.35;5.35;;;;;;;5.41;100.00;103433.97;5044303;28;20093;-79
2024/01/27 11:39:29;;;;;;;16.95;4.25;;;;;;;5.47;100.00;103422.72;5029920;28;20733;-79
2024/01/27 11:42:17;;;;;;;8.38;3.25;;;;;;;5.49;100.00;103426.25;5020729;28;20079;-79
2024/01/27 11:45:04;;;;;;;8.80;2.80;;;;;;;5.51;100.00;103424.53;5020504;28;20053;-78
2024/01/27 11:47:50;;;;;;;10.13;3.30;;;;;;;5.53;100.00;103425.44;5044306;28;20036;-78
2024/01/27 11:50:36;;;;;;;12.50;3.03;;;;;;;5.56;100.00;103430.75;5016317;28;20033;-78
2024/01/27 11:53:23;;;;;;;11.95;3.15;;;;;;;5.57;100.00;103418.50;5031173;28;20033;-78
2024/01/27 11:56:09;;;;;;;17.73;3.42;;;;;;;5.62;100.00;103419.44;5031935;28;20032;-79
2024/01/27 11:58:55;;;;;;;14.48;2.45;;;;;;;5.65;100.00;103415.97;5034561;28;20120;-78
2024/01/27 12:01:44;;;;;;;12.27;2.67;;;;;;;5.66;100.00;103416.00;5046610;28;20193;-77
2024/01/27 12:04:30;;;;;;;7.20;2.20;;;;;;;5.71;100.00;103416.97;5046544;28;20090;-78
2024/01/27 12:07:18;;;;;;;10.45;2.53;;;;;;;5.73;100.00;103406.50;5018618;28;20139;-79
2024/01/27 12:10:05;;;;;;;6.20;2.30;;;;;;;5.76;100.00;103403.91;5019018;28;20037;-80
2024/01/27 12:12:51;;;;;;;12.13;2.20;;;;;;;5.79;100.00;103406.59;5034853;28;20570;-79
2024/01/27 12:15:36;;;;;;;10.73;2.45;;;;;;;5.83;100.00;103408.41;5029872;28;20036;-79
2024/01/27 12:18:23;;;;;;;11.52;2.40;;;;;;;5.85;100.00;103414.56;5045847;28;20127;-79
2024/01/27 12:21:09;;;;;;;7.72;2.70;;;;;;;5.89;100.00;103419.88;5043791;28;20027;-79
2024/01/27 12:23:57;;;;;;;10.52;2.75;;;;;;;5.91;100.00;103423.41;5030757;28;20036;-79
2024/01/27 12:26:43;;;;;;;9.15;2.50;;;;;;;5.89;100.00;103406.72;5017711;28;20126;-79
2024/01/27 12:29:28;;;;;;;10.77;2.78;;;;;;;5.90;100.00;103401.50;5033577;28;20033;-77
2024/01/27 12:32:15;;;;;;;12.70;2.47;;;;;;;5.95;100.00;103401.56;5049482;28;20094;-79
2024/01/27 12:35:08;;;;;;;10.35;2.42;;;;;;;5.94;100.00;103402.44;5025499;28;20040;-80
2024/01/27 12:37:53;;;;;;;9.95;2.53;;;;;;;5.94;100.00;103394.56;5029171;28;20112;-79
2024/01/27 12:40:39;;;;;;;12.90;2.88;;;;;;;5.96;100.00;103400.72;5035280;28;20469;-79
2024/01/27 12:43:25;;;;;;;8.52;3.05;;;;;;;5.95;100.00;103399.81;5047240;28;20041;-79
2024/01/27 12:46:12;;;;;;;11.77;3.30;;;;;;;5.96;100.00;103398.06;5034949;28;20052;-80
2024/01/27 12:48:58;;;;;;;10.57;2.65;;;;;;;5.97;100.00;103400.75;5048502;28;20408;-79
2024/01/27 12:51:45;;;;;;;14.77;3.47;;;;;;;5.98;100.00;103409.50;5034682;28;20048;-78